createdAt,value
2023-05-05T00:00:15.228Z,29.32
2023-05-05T00:01:15.255Z,28.43
2023-05-05T00:02:15.253Z,28.88
2023-05-05T00:03:15.392Z,25.00
2023-05-05T00:04:15.370Z,26.05
2023-05-05T00:05:15.353Z,31.15
2023-05-05T00:06:15.379Z,25.00
2023-05-05T00:07:15.444Z,31.36
2023-05-05T00:08:15.439Z,29.58
2023-05-05T00:09:15.474Z,29.60
2023-05-05T00:10:15.523Z,28.81
2023-05-05T00:11:15.579Z,25.03
2023-05-05T00:12:15.613Z,25.00
2023-05-05T00:13:15.611Z,25.00
2023-05-05T00:14:15.653Z,29.53
2023-05-05T00:15:15.711Z,28.95
2023-05-05T00:16:15.741Z,31.00
2023-05-05T00:17:15.797Z,27.98
2023-05-05T00:18:15.829Z,28.01
2023-05-05T00:19:15.827Z,28.76
2023-05-05T00:20:15.921Z,24.72
2023-05-05T00:21:15.911Z,27.95
2023-05-05T00:22:15.938Z,33.22
2023-05-05T00:23:15.996Z,31.84
2023-05-05T00:24:16.021Z,30.00
2023-05-05T00:25:16.036Z,29.12
2023-05-05T00:26:16.047Z,32.18
2023-05-05T00:27:16.168Z,30.30
2023-05-05T00:28:16.100Z,31.67
2023-05-05T00:29:16.171Z,32.43
2023-05-05T00:30:16.179Z,28.97
2023-05-05T00:31:16.285Z,28.11
2023-05-05T00:32:16.260Z,26.54
2023-05-05T00:33:16.292Z,29.05
2023-05-05T00:34:16.316Z,31.11
2023-05-05T00:35:16.364Z,29.87
2023-05-05T00:36:16.370Z,25.89
2023-05-05T00:37:16.396Z,25.74
2023-05-05T00:38:16.436Z,31.13
2023-05-05T00:39:16.507Z,31.66
2023-05-05T00:40:16.530Z,25.70
2023-05-05T00:41:16.556Z,30.14
2023-05-05T00:42:16.570Z,31.57
2023-05-05T00:43:16.609Z,32.90
2023-05-05T00:44:16.651Z,29.26
2023-05-05T00:45:16.682Z,35.78
2023-05-05T00:46:16.710Z,32.44
2023-05-05T00:47:16.783Z,29.25
2023-05-05T00:48:16.801Z,31.40
2023-05-05T00:49:16.856Z,29.15
2023-05-05T00:50:16.837Z,29.09
2023-05-05T00:51:16.877Z,31.50
2023-05-05T00:52:16.899Z,30.30
2023-05-05T00:53:16.943Z,27.87
2023-05-05T00:54:16.938Z,27.89
2023-05-05T00:55:17.047Z,31.70
2023-05-05T00:56:17.037Z,31.38
2023-05-05T00:57:17.078Z,27.71
2023-05-05T00:58:17.083Z,28.22
2023-05-05T00:59:17.134Z,29.63
2023-05-05T01:00:17.163Z,32.12
2023-05-05T01:01:17.202Z,30.15
2023-05-05T01:02:17.223Z,28.90
2023-05-05T01:03:17.429Z,28.76
2023-05-05T01:04:17.279Z,32.76
2023-05-05T01:05:17.284Z,27.09
2023-05-05T01:06:17.306Z,28.91
2023-05-05T01:07:17.389Z,27.01
2023-05-05T01:08:17.398Z,27.81
2023-05-05T01:09:17.424Z,27.65
2023-05-05T01:10:20.184Z,25.72
2023-05-05T01:11:17.463Z,29.09
2023-05-05T01:12:17.458Z,26.15
2023-05-05T01:13:17.427Z,30.65
2023-05-05T01:14:17.457Z,30.94
2023-05-05T01:15:17.423Z,29.98
2023-05-05T01:16:17.484Z,32.86
2023-05-05T01:17:17.416Z,30.90
2023-05-05T01:18:17.391Z,30.93
2023-05-05T01:19:17.391Z,29.02
2023-05-05T01:20:17.390Z,31.64
2023-05-05T01:21:17.398Z,30.96
2023-05-05T01:22:17.368Z,28.60
2023-05-05T01:23:17.374Z,28.40
2023-05-05T01:24:17.366Z,28.71
2023-05-05T01:25:17.349Z,28.41
2023-05-05T01:26:17.373Z,30.22
2023-05-05T01:27:17.346Z,26.86
2023-05-05T01:28:17.357Z,28.20
2023-05-05T01:29:17.349Z,25.66
2023-05-05T01:30:17.328Z,27.89
2023-05-05T01:31:17.355Z,28.79
2023-05-05T01:32:17.302Z,29.32
2023-05-05T01:33:17.285Z,28.41
2023-05-05T01:34:17.300Z,30.61
2023-05-05T01:35:17.301Z,27.07
2023-05-05T01:36:17.275Z,29.09
2023-05-05T01:37:17.241Z,28.78
2023-05-05T01:38:17.260Z,29.99
2023-05-05T01:39:17.249Z,27.00
2023-05-05T01:40:17.271Z,27.83
2023-05-05T01:41:17.229Z,34.60
2023-05-05T01:42:17.209Z,25.54
2023-05-05T01:43:17.221Z,28.56
2023-05-05T01:44:17.221Z,27.14
2023-05-05T01:45:17.191Z,28.96
2023-05-05T01:46:17.294Z,29.22
2023-05-05T01:47:17.206Z,27.44
2023-05-05T01:48:17.189Z,29.81
2023-05-05T01:49:17.279Z,30.52
2023-05-05T01:50:17.198Z,29.94
2023-05-05T01:51:17.171Z,28.01
2023-05-05T01:52:17.175Z,32.76
2023-05-05T01:53:17.148Z,28.89
2023-05-05T01:54:17.146Z,30.17
2023-05-05T01:55:17.152Z,32.03
2023-05-05T01:56:17.130Z,30.92
2023-05-05T01:57:17.134Z,29.03
2023-05-05T01:58:17.129Z,29.90
2023-05-05T01:59:17.145Z,31.67
2023-05-05T02:00:17.189Z,29.12
2023-05-05T02:01:17.243Z,30.70
2023-05-05T02:02:17.259Z,32.63
2023-05-05T02:03:17.441Z,30.53
2023-05-05T02:04:17.314Z,28.11
2023-05-05T02:05:17.393Z,29.40
2023-05-05T02:06:17.401Z,31.58
2023-05-05T02:07:17.465Z,31.00
2023-05-05T02:08:17.491Z,28.74
2023-05-05T02:09:17.531Z,26.73
2023-05-05T02:10:17.558Z,24.09
2023-05-05T02:11:17.584Z,32.06
2023-05-05T02:12:17.614Z,31.69
2023-05-05T02:13:17.798Z,31.70
2023-05-05T02:14:17.703Z,29.06
2023-05-05T02:15:17.741Z,29.88
2023-05-05T02:16:17.974Z,27.31
2023-05-05T02:17:17.821Z,32.37
2023-05-05T02:18:17.885Z,28.96
2023-05-05T02:19:17.931Z,30.50
2023-05-05T02:20:17.959Z,28.83
2023-05-05T02:21:18.015Z,32.75
2023-05-05T02:22:18.015Z,28.41
2023-05-05T02:23:18.106Z,27.51
2023-05-05T02:24:18.109Z,28.51
2023-05-05T02:25:18.158Z,29.96
2023-05-05T02:26:18.191Z,27.60
2023-05-05T02:27:18.235Z,31.89
2023-05-05T02:28:18.323Z,29.89
2023-05-05T02:29:18.325Z,30.92
2023-05-05T02:30:18.373Z,32.88
2023-05-05T02:31:18.428Z,29.96
2023-05-05T02:32:18.416Z,30.23
2023-05-05T02:33:18.440Z,29.25
2023-05-05T02:34:18.567Z,27.24
2023-05-05T02:35:18.522Z,30.03
2023-05-05T02:36:18.574Z,29.86
2023-05-05T02:37:18.611Z,31.15
2023-05-05T02:38:18.650Z,28.14
2023-05-05T02:39:18.687Z,33.85
2023-05-05T02:40:18.743Z,30.49
2023-05-05T02:41:18.780Z,30.58
2023-05-05T02:42:18.829Z,31.12
2023-05-05T02:43:18.841Z,30.26
2023-05-05T02:44:18.894Z,29.13
2023-05-05T02:45:18.947Z,27.06
2023-05-05T02:46:18.993Z,28.01
2023-05-05T02:47:19.017Z,33.82
2023-05-05T02:48:19.045Z,31.07
2023-05-05T02:49:19.067Z,29.93
2023-05-05T02:50:19.145Z,34.19
2023-05-05T02:51:19.146Z,29.91
2023-05-05T02:52:19.199Z,29.84
2023-05-05T02:53:19.229Z,33.44
2023-05-05T02:54:19.263Z,30.94
2023-05-05T02:55:19.328Z,30.26
2023-05-05T02:56:19.374Z,30.03
2023-05-05T02:57:19.381Z,29.43
2023-05-05T02:58:19.400Z,29.85
2023-05-05T02:59:19.484Z,27.55
2023-05-05T03:00:19.506Z,26.15
2023-05-05T03:01:19.596Z,25.11
2023-05-05T03:02:19.617Z,32.36
2023-05-05T03:03:19.700Z,28.48
2023-05-05T03:04:19.661Z,29.04
2023-05-05T03:05:19.685Z,30.01
2023-05-05T03:06:19.722Z,32.08
2023-05-05T03:07:19.740Z,31.15
2023-05-05T03:08:19.798Z,33.41
2023-05-05T03:09:19.825Z,31.44
2023-05-05T03:10:19.827Z,30.47
2023-05-05T03:11:19.880Z,28.62
2023-05-05T03:12:19.873Z,29.06
2023-05-05T03:13:19.923Z,29.68
2023-05-05T03:14:19.910Z,27.79
2023-05-05T03:15:19.948Z,29.10
2023-05-05T03:16:20.030Z,30.75
2023-05-05T03:17:19.953Z,27.46
2023-05-05T03:18:19.990Z,29.24
2023-05-05T03:19:20.014Z,29.03
2023-05-05T03:20:19.999Z,28.05
2023-05-05T03:21:20.052Z,28.60
2023-05-05T03:22:20.033Z,29.99
2023-05-05T03:23:20.037Z,29.60
2023-05-05T03:24:20.024Z,30.80
2023-05-05T03:25:19.998Z,29.09
2023-05-05T03:26:20.036Z,30.60
2023-05-05T03:27:20.007Z,31.36
2023-05-05T03:28:20.043Z,28.57
2023-05-05T03:29:20.010Z,28.81
2023-05-05T03:30:20.031Z,26.52
2023-05-05T03:31:20.029Z,31.81
2023-05-05T03:32:19.994Z,31.74
2023-05-05T03:33:20.000Z,31.33
2023-05-05T03:34:20.000Z,31.14
2023-05-05T03:35:20.001Z,25.00
2023-05-05T03:36:20.025Z,29.57
2023-05-05T03:37:20.026Z,28.55
2023-05-05T03:38:20.022Z,28.09
2023-05-05T03:39:20.012Z,34.43
2023-05-05T03:40:21.021Z,29.10
2023-05-05T03:41:20.016Z,35.10
2023-05-05T03:42:19.997Z,30.69
2023-05-05T03:43:19.994Z,32.02
2023-05-05T03:44:20.006Z,29.42
2023-05-05T03:45:19.977Z,31.62
2023-05-05T03:46:20.004Z,32.52
2023-05-05T03:47:19.985Z,34.29
2023-05-05T03:48:19.974Z,32.09
2023-05-05T03:49:19.958Z,35.37
2023-05-05T03:50:19.928Z,32.28
2023-05-05T03:51:20.051Z,28.76
2023-05-05T03:52:19.931Z,29.73
2023-05-05T03:53:19.923Z,27.52
2023-05-05T03:54:19.926Z,30.04
2023-05-05T03:55:19.933Z,30.76
2023-05-05T03:56:19.906Z,33.33
2023-05-05T03:57:19.891Z,31.97
2023-05-05T03:58:19.913Z,33.24
2023-05-05T03:59:19.889Z,30.10
2023-05-05T04:00:19.873Z,33.46
2023-05-05T04:01:19.848Z,31.20
2023-05-05T04:02:20.036Z,29.96
2023-05-05T04:03:19.965Z,29.41
2023-05-05T04:04:19.845Z,28.03
2023-05-05T04:05:19.838Z,26.42
2023-05-05T04:06:19.839Z,32.64
2023-05-05T04:07:19.829Z,30.45
2023-05-05T04:08:19.839Z,31.34
2023-05-05T04:09:19.822Z,31.66
2023-05-05T04:10:19.818Z,30.47
2023-05-05T04:11:19.791Z,31.44
2023-05-05T04:12:19.809Z,30.07
2023-05-05T04:13:19.789Z,31.40
2023-05-05T04:14:19.748Z,30.48
2023-05-05T04:15:19.772Z,30.46
2023-05-05T04:16:19.842Z,29.78
2023-05-05T04:17:19.749Z,28.52
2023-05-05T04:18:19.757Z,28.20
2023-05-05T04:19:19.734Z,31.05
2023-05-05T04:20:19.730Z,29.80
2023-05-05T04:21:19.732Z,29.34
2023-05-05T04:22:19.711Z,27.69
2023-05-05T04:23:19.724Z,28.02
2023-05-05T04:24:19.725Z,32.59
2023-05-05T04:25:19.705Z,30.88
2023-05-05T04:26:19.667Z,29.73
2023-05-05T04:27:19.679Z,29.23
2023-05-05T04:28:21.055Z,27.78
2023-05-05T04:29:19.702Z,31.42
2023-05-05T04:30:19.674Z,29.73
2023-05-05T04:31:19.705Z,33.29
2023-05-05T04:32:19.676Z,30.58
2023-05-05T04:33:19.675Z,28.56
2023-05-05T04:34:19.646Z,31.06
2023-05-05T04:35:19.636Z,29.52
2023-05-05T04:36:19.618Z,27.68
2023-05-05T04:37:19.625Z,29.10
2023-05-05T04:38:19.644Z,26.78
2023-05-05T04:39:19.605Z,29.25
2023-05-05T04:40:19.605Z,31.23
2023-05-05T04:41:19.588Z,29.53
2023-05-05T04:42:19.566Z,30.74
2023-05-05T04:43:19.547Z,31.37
2023-05-05T04:44:19.566Z,29.85
2023-05-05T04:45:19.570Z,31.24
2023-05-05T04:46:19.597Z,28.61
2023-05-05T04:47:19.544Z,31.37
2023-05-05T04:48:19.538Z,30.63
2023-05-05T04:49:19.508Z,29.70
2023-05-05T04:50:19.494Z,29.60
2023-05-05T04:51:19.517Z,29.15
2023-05-05T04:52:19.502Z,30.74
2023-05-05T04:53:19.512Z,28.70
2023-05-05T04:54:19.519Z,25.00
2023-05-05T04:55:19.529Z,30.58
2023-05-05T04:56:19.501Z,35.14
2023-05-05T04:57:19.555Z,29.59
2023-05-05T04:58:19.520Z,30.20
2023-05-05T04:59:19.573Z,31.96
2023-05-05T05:00:19.589Z,33.94
2023-05-05T05:01:26.647Z,30.51
2023-05-05T05:02:19.720Z,30.93
2023-05-05T05:03:19.677Z,31.91
2023-05-05T05:04:19.577Z,32.19
2023-05-05T05:05:19.565Z,33.22
2023-05-05T05:06:19.564Z,33.31
2023-05-05T05:07:19.566Z,31.27
2023-05-05T05:08:19.540Z,34.59
2023-05-05T05:09:19.523Z,34.75
2023-05-05T05:10:19.548Z,33.55
2023-05-05T05:11:19.529Z,35.56
2023-05-05T05:12:19.527Z,35.47
2023-05-05T05:13:19.525Z,38.35
2023-05-05T05:14:19.524Z,37.54
2023-05-05T05:15:19.497Z,34.72
2023-05-05T05:16:19.545Z,33.17
2023-05-05T05:17:19.483Z,34.05
2023-05-05T05:18:19.488Z,33.34
2023-05-05T05:19:19.481Z,33.89
2023-05-05T05:20:19.483Z,32.32
2023-05-05T05:21:19.454Z,31.66
2023-05-05T05:22:19.465Z,31.87
2023-05-05T05:23:19.475Z,33.63
2023-05-05T05:24:19.434Z,35.70
2023-05-05T05:25:19.449Z,25.00
2023-05-05T05:26:19.404Z,24.98
2023-05-05T05:27:19.425Z,27.80
2023-05-05T05:28:19.407Z,23.44
2023-05-05T05:29:19.414Z,29.14
2023-05-05T05:30:19.407Z,26.94
2023-05-05T05:31:19.449Z,28.46
2023-05-05T05:32:19.547Z,21.58
2023-05-05T05:33:19.393Z,36.17
2023-05-05T05:34:19.363Z,41.61
2023-05-05T05:35:19.371Z,38.42
2023-05-05T05:36:19.451Z,42.21
2023-05-05T05:37:19.448Z,51.57
2023-05-05T05:38:19.391Z,54.29
2023-05-05T05:39:19.326Z,65.17
2023-05-05T05:40:19.356Z,70.10
2023-05-05T05:41:19.358Z,73.62
2023-05-05T05:42:19.579Z,67.88
2023-05-05T05:43:19.322Z,52.10
2023-05-05T05:44:19.299Z,43.65
2023-05-05T05:45:19.329Z,38.45
2023-05-05T05:46:26.348Z,38.25
2023-05-05T05:47:19.559Z,38.51
2023-05-05T05:48:19.278Z,19.05
2023-05-05T05:49:19.279Z,16.75
2023-05-05T05:50:19.242Z,9.82
2023-05-05T05:51:19.229Z,22.58
2023-05-05T05:52:19.232Z,26.40
2023-05-05T05:53:19.228Z,25.00
2023-05-05T05:54:19.225Z,35.87
2023-05-05T05:55:19.227Z,25.00
2023-05-05T05:56:19.220Z,28.29
2023-05-05T05:57:19.222Z,33.13
2023-05-05T05:58:19.244Z,50.06
2023-05-05T05:59:19.197Z,58.79
2023-05-05T06:00:19.202Z,78.75
2023-05-05T06:01:19.195Z,89.20
2023-05-05T06:02:19.279Z,102.85
2023-05-05T06:03:19.284Z,109.48
2023-05-05T06:04:19.206Z,113.04
2023-05-05T06:05:19.152Z,115.15
2023-05-05T06:06:19.142Z,123.15
2023-05-05T06:07:19.106Z,126.73
2023-05-05T06:08:19.121Z,129.70
2023-05-05T06:09:19.133Z,125.28
2023-05-05T06:10:27.770Z,128.06
2023-05-05T06:11:20.110Z,128.69
2023-05-05T06:12:19.113Z,128.88
2023-05-05T06:13:19.091Z,134.98
2023-05-05T06:14:20.088Z,145.49
2023-05-05T06:15:19.083Z,158.75
2023-05-05T06:16:19.121Z,161.14
2023-05-05T06:17:19.083Z,163.03
2023-05-05T06:18:19.178Z,169.53
2023-05-05T06:19:19.070Z,173.05
2023-05-05T06:20:19.084Z,174.21
2023-05-05T06:21:19.054Z,177.73
2023-05-05T06:22:19.044Z,181.56
2023-05-05T06:23:19.104Z,186.34
2023-05-05T06:24:19.213Z,185.25
2023-05-05T06:25:19.236Z,186.29
2023-05-05T06:26:19.295Z,190.68
2023-05-05T06:27:19.321Z,194.23
2023-05-05T06:28:19.614Z,194.63
2023-05-05T06:29:19.446Z,194.64
2023-05-05T06:30:19.489Z,197.94
2023-05-05T06:31:19.533Z,202.51
2023-05-05T06:32:19.600Z,206.10
2023-05-05T06:33:19.680Z,209.47
2023-05-05T06:34:19.682Z,208.32
2023-05-05T06:35:19.751Z,199.27
2023-05-05T06:36:19.772Z,198.32
2023-05-05T06:37:19.868Z,202.26
2023-05-05T06:38:20.037Z,165.99
2023-05-05T06:39:19.975Z,155.87
2023-05-05T06:40:20.002Z,157.25
2023-05-05T06:41:20.076Z,159.05
2023-05-05T06:42:20.146Z,171.96
2023-05-05T06:43:20.214Z,181.09
2023-05-05T06:44:20.252Z,184.54
2023-05-05T06:45:20.312Z,188.45
2023-05-05T06:46:21.160Z,198.87
2023-05-05T06:47:20.482Z,206.79
2023-05-05T06:48:20.590Z,213.99
2023-05-05T06:49:20.626Z,192.36
2023-05-05T06:50:20.669Z,172.53
2023-05-05T06:51:20.645Z,163.13
2023-05-05T06:52:20.735Z,161.09
2023-05-05T06:53:21.090Z,153.80
2023-05-05T06:54:20.872Z,140.11
2023-05-05T06:55:20.933Z,126.23
2023-05-05T06:56:20.975Z,96.04
2023-05-05T06:57:21.058Z,90.75
2023-05-05T06:58:21.124Z,92.47
2023-05-05T06:59:21.131Z,85.18
2023-05-05T07:00:21.198Z,82.42
2023-05-05T07:01:21.294Z,25.49
2023-05-05T07:02:21.234Z,32.91
2023-05-05T07:03:21.400Z,33.16
2023-05-05T07:04:21.350Z,17.01
2023-05-05T07:05:21.206Z,36.23
2023-05-05T07:06:21.241Z,34.36
2023-05-05T07:07:21.202Z,26.24
2023-05-05T07:08:21.222Z,31.12
2023-05-05T07:09:21.212Z,54.67
2023-05-05T07:10:21.267Z,49.24
2023-05-05T07:11:21.225Z,60.04
2023-05-05T07:12:21.210Z,25.00
2023-05-05T07:13:21.195Z,14.70
2023-05-05T07:14:23.401Z,27.66
2023-05-05T07:15:28.866Z,33.13
2023-05-05T07:16:22.245Z,33.88
2023-05-05T07:17:21.228Z,34.31
2023-05-05T07:18:21.239Z,31.24
2023-05-05T07:19:21.236Z,26.88
2023-05-05T07:20:21.169Z,32.29
2023-05-05T07:21:21.175Z,13.02
2023-05-05T07:22:21.192Z,14.54
2023-05-05T07:23:21.157Z,25.00
2023-05-05T07:24:21.194Z,60.05
2023-05-05T07:25:21.239Z,46.46
2023-05-05T07:26:21.211Z,25.00
2023-05-05T07:27:21.134Z,25.00
2023-05-05T07:28:21.131Z,52.89
2023-05-05T07:29:21.098Z,48.17
2023-05-05T07:30:21.449Z,49.87
2023-05-05T07:31:21.109Z,64.00
2023-05-05T07:32:21.191Z,101.04
2023-05-05T07:33:21.133Z,125.85
2023-05-05T07:34:21.120Z,133.40
2023-05-05T07:35:21.124Z,144.03
2023-05-05T07:36:21.058Z,153.74
2023-05-05T07:37:21.040Z,166.09
2023-05-05T07:38:21.054Z,172.03
2023-05-05T07:39:21.076Z,176.77
2023-05-05T07:40:21.043Z,192.29
2023-05-05T07:41:21.062Z,181.64
2023-05-05T07:42:21.074Z,199.39
2023-05-05T07:43:21.159Z,204.84
2023-05-05T07:44:21.228Z,227.73
2023-05-05T07:45:21.235Z,237.31
2023-05-05T07:46:21.364Z,246.57
2023-05-05T07:47:21.368Z,250.16
2023-05-05T07:48:21.403Z,247.74
2023-05-05T07:49:21.704Z,250.00
2023-05-05T07:50:21.514Z,249.92
2023-05-05T07:51:21.601Z,250.20
2023-05-05T07:52:33.232Z,250.00
2023-05-05T07:53:22.600Z,250.42
2023-05-05T07:54:21.561Z,251.76
2023-05-05T07:55:21.524Z,254.24
2023-05-05T07:56:21.844Z,258.92
2023-05-05T07:57:21.545Z,266.20
2023-05-05T07:58:21.567Z,243.10
2023-05-05T07:59:21.527Z,246.47
2023-05-05T08:00:37.775Z,25.00
2023-05-05T08:01:37.326Z,25.00
2023-05-05T08:02:37.412Z,25.00
2023-05-05T08:03:37.495Z,25.00
2023-05-05T08:04:37.347Z,25.00
2023-05-05T08:05:37.321Z,26.83
2023-05-05T08:06:37.421Z,32.17
2023-05-05T08:07:37.311Z,33.64
2023-05-05T08:08:37.319Z,28.91
2023-05-05T08:09:37.269Z,25.94
2023-05-05T08:10:37.278Z,27.81
2023-05-05T08:11:37.256Z,32.05
2023-05-05T08:12:37.295Z,26.21
2023-05-05T08:13:37.263Z,25.48
2023-05-05T08:14:37.288Z,31.91
2023-05-05T08:15:37.299Z,28.11
2023-05-05T08:16:37.292Z,25.00
2023-05-05T08:17:37.236Z,30.53
2023-05-05T08:18:37.239Z,15.80
2023-05-05T08:19:37.295Z,28.71
2023-05-05T08:20:37.225Z,29.13
2023-05-05T08:21:37.196Z,33.55
2023-05-05T08:22:37.258Z,26.49
2023-05-05T08:23:37.210Z,25.34
2023-05-05T08:24:37.184Z,31.23
2023-05-05T08:25:37.183Z,25.00
2023-05-05T08:26:37.193Z,24.41
2023-05-05T08:27:38.189Z,29.13
2023-05-05T08:28:37.200Z,26.82
2023-05-05T08:29:37.169Z,25.00
2023-05-05T08:30:37.159Z,30.32
2023-05-05T08:31:37.186Z,22.36
2023-05-05T08:32:37.299Z,25.00
2023-05-05T08:33:37.285Z,35.56
2023-05-05T08:34:37.248Z,39.24
2023-05-05T08:35:37.246Z,34.89
2023-05-05T08:36:37.816Z,35.12
2023-05-05T08:37:37.306Z,26.14
2023-05-05T08:38:37.372Z,26.00
2023-05-05T08:39:37.337Z,27.69
2023-05-05T08:40:37.500Z,25.34
2023-05-05T08:41:37.397Z,25.24
2023-05-05T08:42:39.034Z,31.16
2023-05-05T08:43:37.814Z,25.22
2023-05-05T08:44:37.486Z,25.54
2023-05-05T08:45:37.362Z,27.49
2023-05-05T08:46:37.386Z,26.81
2023-05-05T08:47:37.482Z,25.00
2023-05-05T08:48:37.803Z,26.41
2023-05-05T08:49:37.390Z,25.37
2023-05-05T08:50:37.571Z,35.88
2023-05-05T08:51:37.423Z,29.00
2023-05-05T08:52:37.455Z,43.77
2023-05-05T08:53:39.309Z,47.58
2023-05-05T08:54:37.511Z,48.26
2023-05-05T08:55:37.462Z,48.47
2023-05-05T08:56:37.446Z,46.89
2023-05-05T08:57:37.468Z,44.91
2023-05-05T08:58:37.812Z,44.57
2023-05-05T08:59:37.464Z,33.43
2023-05-05T09:00:37.442Z,42.27
2023-05-05T09:01:37.499Z,44.48
2023-05-05T09:02:37.905Z,44.00
2023-05-05T09:03:37.581Z,41.86
2023-05-05T09:04:37.552Z,45.60
2023-05-05T09:05:37.618Z,38.14
2023-05-05T09:06:37.673Z,33.50
2023-05-05T09:07:37.726Z,34.62
2023-05-05T09:08:37.793Z,31.16
2023-05-05T09:09:37.847Z,31.29
2023-05-05T09:10:38.045Z,34.69
2023-05-05T09:11:37.926Z,43.47
2023-05-05T09:12:38.049Z,39.01
2023-05-05T09:13:39.345Z,35.53
2023-05-05T09:14:38.233Z,34.74
2023-05-05T09:15:38.204Z,28.03
2023-05-05T09:16:38.315Z,42.94
2023-05-05T09:17:38.370Z,32.75
2023-05-05T09:18:38.490Z,28.60
2023-05-05T09:19:38.439Z,40.09
2023-05-05T09:20:38.482Z,27.65
2023-05-05T09:21:38.563Z,38.79
2023-05-05T09:22:38.704Z,35.10
2023-05-05T09:23:38.976Z,27.20
2023-05-05T09:24:38.766Z,25.27
2023-05-05T09:25:38.830Z,32.57
2023-05-05T09:26:38.942Z,22.58
2023-05-05T09:27:38.858Z,47.02
2023-05-05T09:28:39.332Z,49.34
2023-05-05T09:29:39.012Z,52.02
2023-05-05T09:30:39.123Z,34.72
2023-05-05T09:31:39.067Z,29.62
2023-05-05T09:32:39.211Z,25.00
2023-05-05T09:33:39.314Z,25.21
2023-05-05T09:34:39.192Z,0.00
2023-05-05T09:35:39.100Z,4.10
2023-05-05T09:36:39.143Z,0.00
2023-05-05T09:37:39.231Z,0.00
2023-05-05T09:38:39.294Z,8.78
2023-05-05T09:39:39.337Z,37.50
2023-05-05T09:40:39.416Z,20.69
2023-05-05T09:41:39.464Z,30.60
2023-05-05T09:42:39.566Z,38.21
2023-05-05T09:43:39.852Z,24.00
2023-05-05T09:44:39.635Z,8.56
2023-05-05T09:45:39.680Z,20.91
2023-05-05T09:46:39.819Z,25.63
2023-05-05T09:47:39.740Z,15.18
2023-05-05T09:48:39.812Z,21.45
2023-05-05T09:49:39.743Z,23.98
2023-05-05T09:50:39.705Z,28.25
2023-05-05T09:51:39.705Z,47.96
2023-05-05T09:52:39.765Z,68.37
2023-05-05T09:53:39.832Z,73.27
2023-05-05T09:54:39.767Z,71.91
2023-05-05T09:55:39.815Z,104.87
2023-05-05T09:56:39.776Z,102.50
2023-05-05T09:57:39.855Z,154.99
2023-05-05T09:58:39.801Z,171.98
2023-05-05T09:59:39.775Z,176.99
2023-05-05T10:00:39.913Z,186.41
2023-05-05T10:01:39.885Z,212.83
2023-05-05T10:02:39.943Z,229.37
2023-05-05T10:03:40.331Z,204.52
2023-05-05T10:04:39.995Z,210.28
2023-05-05T10:05:40.110Z,208.89
2023-05-05T10:06:40.131Z,186.02
2023-05-05T10:07:40.113Z,160.78
2023-05-05T10:08:40.226Z,139.96
2023-05-05T10:09:40.280Z,157.99
2023-05-05T10:10:40.299Z,176.04
2023-05-05T10:11:40.404Z,164.93
2023-05-05T10:12:40.579Z,168.25
2023-05-05T10:13:40.520Z,182.51
2023-05-05T10:14:40.613Z,179.84
2023-05-05T10:15:40.580Z,65.18
2023-05-05T10:16:40.810Z,53.22
2023-05-05T10:17:44.016Z,72.59
2023-05-05T10:18:41.819Z,73.30
2023-05-05T10:19:40.713Z,67.56
2023-05-05T10:20:40.679Z,37.34
2023-05-05T10:21:42.074Z,36.56
2023-05-05T10:22:40.780Z,16.22
2023-05-05T10:23:40.790Z,53.31
2023-05-05T10:24:40.890Z,55.82
2023-05-05T10:25:40.900Z,86.04
2023-05-05T10:26:40.920Z,133.49
2023-05-05T10:27:40.978Z,158.16
2023-05-05T10:28:41.021Z,181.41
2023-05-05T10:29:41.065Z,211.30
2023-05-05T10:30:41.201Z,233.11
2023-05-05T10:31:41.149Z,250.09
2023-05-05T10:33:41.256Z,249.79
2023-05-05T10:34:41.207Z,250.00
2023-05-05T10:35:41.185Z,251.34
2023-05-05T10:36:41.161Z,250.36
2023-05-05T10:37:41.162Z,249.94
2023-05-05T10:38:41.388Z,250.00
2023-05-05T10:39:41.206Z,249.96
2023-05-05T10:40:41.186Z,249.38
2023-05-05T10:41:41.127Z,250.00
2023-05-05T10:42:41.137Z,249.35
2023-05-05T10:43:41.091Z,250.00
2023-05-05T10:44:41.351Z,249.92
2023-05-05T10:45:41.181Z,250.00
2023-05-05T10:46:41.193Z,250.00
2023-05-05T10:47:41.090Z,249.99
2023-05-05T10:48:41.110Z,248.90
2023-05-05T10:49:41.047Z,249.22
2023-05-05T10:50:41.059Z,250.00
2023-05-05T10:51:41.386Z,249.00
2023-05-05T10:52:41.056Z,249.87
2023-05-05T10:53:41.078Z,249.66
2023-05-05T10:54:41.015Z,249.19
2023-05-05T10:55:41.001Z,249.29
2023-05-05T10:56:40.997Z,250.09
2023-05-05T10:57:40.995Z,249.76
2023-05-05T10:58:58.331Z,250.00
2023-05-05T10:59:42.030Z,250.15
2023-05-05T11:00:41.051Z,250.88
2023-05-05T11:01:41.030Z,252.24
2023-05-05T11:02:41.042Z,254.06
2023-05-05T11:03:41.002Z,257.38
2023-05-05T11:04:41.141Z,249.60
2023-05-05T11:05:41.054Z,250.01
2023-05-05T11:06:41.105Z,249.64
2023-05-05T11:07:41.087Z,248.31
2023-05-05T11:08:41.159Z,249.42
2023-05-05T11:09:41.221Z,249.68
2023-05-05T11:10:41.289Z,248.01
2023-05-05T11:11:41.286Z,246.73
2023-05-05T11:12:41.410Z,248.44
2023-05-05T11:13:41.358Z,248.46
2023-05-05T11:14:41.856Z,249.06
2023-05-05T11:15:41.498Z,249.76
2023-05-05T11:16:41.499Z,249.10
2023-05-05T11:17:41.548Z,248.95
2023-05-05T11:18:41.733Z,250.00
2023-05-05T11:19:41.880Z,249.13
2023-05-05T11:20:41.698Z,249.67
2023-05-05T11:21:41.719Z,249.88
2023-05-05T11:22:41.752Z,247.74
2023-05-05T11:23:41.812Z,249.15
2023-05-05T11:24:42.361Z,247.77
2023-05-05T11:25:41.895Z,248.56
2023-05-05T11:26:41.969Z,248.93
2023-05-05T11:27:42.015Z,249.33
2023-05-05T11:28:42.068Z,247.50
2023-05-05T11:29:42.346Z,249.64
2023-05-05T11:30:42.232Z,248.62
2023-05-05T11:31:42.879Z,249.73
2023-05-05T11:32:42.318Z,249.40
2023-05-05T11:33:42.346Z,249.80
2023-05-05T11:34:43.408Z,250.00
2023-05-05T11:35:42.461Z,248.99
2023-05-05T11:36:42.493Z,248.26
2023-05-05T11:37:42.564Z,249.48
2023-05-05T11:38:42.655Z,248.00
2023-05-05T11:39:42.692Z,250.23
2023-05-05T11:40:42.750Z,249.43
2023-05-05T11:41:42.817Z,249.33
2023-05-05T11:42:42.861Z,249.17
2023-05-05T11:43:42.885Z,248.76
2023-05-05T11:44:42.958Z,248.95
2023-05-05T11:45:43.014Z,246.75
2023-05-05T11:46:43.190Z,248.81
2023-05-05T11:47:43.143Z,248.56
2023-05-05T11:48:43.230Z,249.47
2023-05-05T11:49:43.299Z,248.91
2023-05-05T11:50:43.492Z,249.23
2023-05-05T11:51:43.387Z,249.05
2023-05-05T11:52:43.478Z,249.13
2023-05-05T11:53:43.502Z,249.14
2023-05-05T11:54:43.591Z,249.45
2023-05-05T11:55:43.655Z,247.69
2023-05-05T11:56:43.726Z,248.72
2023-05-05T11:57:43.781Z,249.35
2023-05-05T11:58:43.822Z,248.54
2023-05-05T11:59:43.840Z,248.77
2023-05-05T12:00:43.936Z,248.03
2023-05-05T12:01:43.997Z,249.04
2023-05-05T12:02:44.184Z,249.27
2023-05-05T12:03:44.241Z,249.30
2023-05-05T12:04:44.280Z,248.90
2023-05-05T12:05:44.241Z,249.03
2023-05-05T12:06:44.286Z,247.06
2023-05-05T12:07:44.340Z,246.94
2023-05-05T12:08:44.414Z,247.07
2023-05-05T12:09:44.487Z,247.23
2023-05-05T12:10:44.552Z,247.23
2023-05-05T12:11:44.602Z,248.36
2023-05-05T12:12:44.676Z,247.50
2023-05-05T12:13:44.718Z,246.92
2023-05-05T12:14:44.781Z,247.71
2023-05-05T12:15:44.849Z,247.30
2023-05-05T12:16:44.991Z,246.23
2023-05-05T12:17:45.200Z,245.80
2023-05-05T12:18:45.014Z,246.89
2023-05-05T12:19:45.065Z,247.71
2023-05-05T12:20:45.131Z,247.20
2023-05-05T12:21:45.187Z,247.58
2023-05-05T12:22:45.291Z,246.87
2023-05-05T12:23:45.383Z,247.99
2023-05-05T12:24:45.415Z,247.63
2023-05-05T12:25:45.398Z,247.45
2023-05-05T12:26:45.531Z,247.96
2023-05-05T12:27:45.542Z,247.96
2023-05-05T12:28:45.580Z,248.23
2023-05-05T12:29:45.650Z,247.52
2023-05-05T12:30:45.760Z,247.63
2023-05-05T12:31:45.785Z,248.00
2023-05-05T12:32:45.844Z,248.04
2023-05-05T12:33:45.884Z,247.63
2023-05-05T12:34:45.937Z,248.73
2023-05-05T12:35:45.941Z,247.47
2023-05-05T12:36:45.998Z,247.37
2023-05-05T12:37:46.020Z,245.43
2023-05-05T12:38:46.151Z,245.74
2023-05-05T12:39:46.202Z,247.84
2023-05-05T12:40:46.181Z,246.93
2023-05-05T12:41:46.214Z,246.42
2023-05-05T12:42:46.452Z,245.29
2023-05-05T12:43:46.312Z,246.03
2023-05-05T12:44:46.351Z,246.61
2023-05-05T12:45:46.438Z,249.76
2023-05-05T12:46:46.386Z,248.54